PADK Airport Information

Runway Information
Runway 05 Length 7790 ft width 200 ft
Elevation 17 ft Threshold 0 ft Heading 61
Runway 23 Length 7790 ft Width 200 ft
Elevation 15 ft Threshold 0 ft Heading 241
Runway 18 Length 7605 ft width 200 ft
Elevation 6 ft Threshold 0 ft Heading 185
Runway 36 Length 7605 ft Width 200 ft
Elevation 4 ft Threshold 0 ft Heading 5
Airport Frequencies
Airport Navaids
Type NDB-DME Name Mount Moffett Frequency 530 KHZ
Type TACAN Name Adak Frequency 113000 KHZ
Airport Weather Information & NOTAM
ADDS - METARS form results

(2336 UTC 20 March 2019)
Data provider http://aviationweather.gov/metar/data/
 
METAR text: PADK 202256Z AUTO 01016G21KT 10SM FEW033 BKN045 OVC055 02/M04 A2965 RMK AO2 UPB24E29RAB29E41SNE24 SLP039 P0000 T00221044 FZRANO
Conditions at: PADK (ADAK NAS , AK, US) observed 2256 UTC 20 March 2019
Temperature: 2.2°C (36°F)
Dewpoint: -4.4°C (24°F) [RH = 62%]
Pressure (altimeter): 29.65 inches Hg (1004.1 mb)
[Sea-level pressure: 1003.9 mb]
Winds: from the N (10 degrees) at 18 MPH (16 knots; 8.2 m/s)
gusting to 24 MPH (21 knots; 10.8 m/s)
Visibility: 10 or more miles (16+ km)
Ceiling: 4500 feet AGL
Clouds: few clouds at 3300 feet AGL
broken clouds at 4500 feet AGL
overcast cloud deck at 5500 feet AGL
Weather: automated observation with no human augmentation;
there may or may not be significant weather present at this time